createdAt,value
2022-10-20T00:00:15.464Z,10.98
2022-10-20T00:01:19.970Z,10.32
2022-10-20T00:02:23.761Z,10.38
2022-10-20T00:03:28.533Z,9.88
2022-10-20T00:04:32.350Z,10.55
2022-10-20T00:05:35.097Z,10.38
2022-10-20T00:06:38.801Z,12.63
2022-10-20T00:07:41.552Z,12.15
2022-10-20T00:08:46.044Z,18.67
2022-10-20T00:09:48.808Z,12.88
2022-10-20T00:10:56.047Z,18.13
2022-10-20T00:11:58.844Z,17.80
2022-10-20T00:13:02.632Z,13.10
2022-10-20T00:14:05.927Z,16.65
2022-10-20T00:15:10.206Z,16.17
2022-10-20T00:16:13.754Z,16.02
2022-10-20T00:17:17.605Z,19.20
2022-10-20T00:18:21.065Z,18.27
2022-10-20T00:19:26.165Z,19.05
2022-10-20T00:20:28.851Z,21.15
2022-10-20T00:21:33.602Z,22.55
2022-10-20T00:22:36.773Z,20.63
2022-10-20T00:23:40.642Z,22.25
2022-10-20T00:24:43.542Z,21.55
2022-10-20T00:25:47.383Z,17.83
2022-10-20T00:26:50.103Z,19.17
2022-10-20T00:27:53.894Z,19.20
2022-10-20T00:28:56.931Z,19.08
2022-10-20T00:30:00.723Z,20.42
2022-10-20T00:31:03.802Z,19.15
2022-10-20T00:32:07.534Z,19.48
2022-10-20T00:33:10.203Z,22.45
2022-10-20T00:34:13.934Z,25.27
2022-10-20T00:35:18.175Z,23.23
2022-10-20T00:36:23.736Z,21.20
2022-10-20T00:37:26.473Z,20.13
2022-10-20T00:38:30.334Z,18.70
2022-10-20T00:39:33.170Z,18.88
2022-10-20T00:40:36.925Z,19.08
2022-10-20T00:41:39.617Z,19.95
2022-10-20T00:42:45.884Z,21.88
2022-10-20T00:43:51.246Z,19.42
2022-10-20T00:44:57.073Z,15.40
2022-10-20T00:45:59.751Z,18.02
2022-10-20T00:47:03.527Z,18.58
2022-10-20T00:48:09.053Z,17.10
2022-10-20T00:49:16.842Z,15.77
2022-10-20T00:50:23.893Z,14.60
2022-10-20T00:51:29.763Z,15.52
2022-10-20T00:52:32.780Z,18.50
2022-10-20T00:53:36.868Z,17.83
2022-10-20T00:54:39.671Z,16.23
2022-10-20T00:55:44.555Z,13.23
2022-10-20T00:56:49.093Z,14.75
2022-10-20T00:57:53.895Z,19.23
2022-10-20T00:58:56.773Z,18.70
2022-10-20T01:00:00.750Z,20.85
2022-10-20T01:01:03.470Z,20.67
2022-10-20T01:02:08.959Z,20.08
2022-10-20T01:03:15.022Z,17.40
2022-10-20T01:04:19.015Z,19.70
2022-10-20T01:05:23.690Z,17.00
2022-10-20T01:06:27.492Z,18.85
2022-10-20T01:07:30.182Z,19.90
2022-10-20T01:08:34.011Z,17.30
2022-10-20T01:09:39.173Z,19.08
2022-10-20T01:10:49.112Z,17.38
2022-10-20T01:11:56.995Z,17.23
2022-10-20T01:13:04.961Z,16.65
2022-10-20T01:14:16.893Z,15.98
2022-10-20T01:15:26.506Z,16.95
2022-10-20T01:16:37.731Z,15.82
2022-10-20T01:17:45.582Z,15.90
2022-10-20T01:18:56.512Z,16.38
2022-10-20T01:20:29.195Z,15.13
2022-10-20T01:21:44.830Z,15.70
2022-10-20T01:23:23.712Z,16.17
2022-10-20T01:24:48.137Z,15.25
2022-10-20T01:26:08.143Z,15.82
2022-10-20T01:27:27.385Z,15.75
2022-10-20T01:28:36.002Z,14.52
2022-10-20T01:29:44.140Z,17.13
2022-10-20T01:30:49.749Z,17.27
2022-10-20T01:32:02.273Z,15.60
2022-10-20T01:33:13.220Z,16.02
2022-10-20T01:34:23.093Z,14.48
2022-10-20T01:35:38.524Z,16.42
2022-10-20T01:36:46.575Z,15.68
2022-10-20T01:37:54.619Z,15.48
2022-10-20T01:39:03.420Z,18.00
2022-10-20T01:40:12.753Z,14.75
2022-10-20T01:41:20.323Z,19.23
2022-10-20T01:42:26.438Z,18.23
2022-10-20T01:43:34.402Z,24.52
2022-10-20T01:44:37.640Z,37.58
2022-10-20T01:45:44.591Z,40.83
2022-10-20T01:46:47.533Z,38.38
2022-10-20T01:47:52.024Z,22.20
2022-10-20T01:48:55.222Z,23.08
2022-10-20T01:49:59.861Z,22.77
2022-10-20T01:51:03.812Z,19.70
2022-10-20T01:52:07.573Z,20.00
2022-10-20T01:53:11.110Z,21.48
2022-10-20T01:54:23.420Z,19.75
2022-10-20T01:55:26.402Z,17.30
2022-10-20T01:56:38.173Z,19.13
2022-10-20T01:57:52.662Z,20.38
2022-10-20T01:59:15.672Z,19.60
2022-10-20T02:00:19.043Z,18.30
2022-10-20T02:01:29.101Z,20.70
2022-10-20T02:02:43.703Z,19.45
2022-10-20T02:03:53.673Z,18.75
2022-10-20T02:05:07.882Z,20.58
2022-10-20T02:06:19.342Z,21.08
2022-10-20T02:07:25.700Z,19.48
2022-10-20T02:08:33.536Z,13.98
2022-10-20T02:09:40.707Z,10.77
2022-10-20T02:10:47.278Z,12.70
2022-10-20T02:11:54.484Z,16.58
2022-10-20T02:13:02.320Z,19.02
2022-10-20T02:14:06.731Z,16.48
2022-10-20T02:15:11.331Z,15.32
2022-10-20T02:16:16.846Z,13.45
2022-10-20T02:17:21.682Z,10.50
2022-10-20T02:18:26.743Z,10.13
2022-10-20T02:19:39.332Z,9.43
2022-10-20T02:20:44.424Z,9.25
2022-10-20T02:21:48.475Z,9.45
2022-10-20T02:22:51.551Z,10.35
2022-10-20T02:23:56.491Z,10.63
2022-10-20T02:25:00.261Z,10.48
2022-10-20T02:26:05.977Z,10.38
2022-10-20T02:27:11.669Z,11.38
2022-10-20T02:28:17.517Z,9.93
2022-10-20T02:29:23.375Z,11.13
2022-10-20T02:30:27.193Z,11.02
2022-10-20T02:31:30.072Z,11.32
2022-10-20T02:32:35.913Z,11.05
2022-10-20T02:33:39.044Z,10.73
2022-10-20T02:34:43.521Z,10.77
2022-10-20T02:35:50.972Z,10.13
2022-10-20T02:36:57.193Z,10.57
2022-10-20T02:38:00.163Z,10.50
2022-10-20T02:39:03.873Z,11.02
2022-10-20T02:40:07.634Z,11.07
2022-10-20T02:41:11.532Z,9.90
2022-10-20T02:42:14.282Z,11.23
2022-10-20T02:43:19.442Z,12.38
2022-10-20T02:44:22.998Z,12.55
2022-10-20T02:45:26.789Z,11.20
2022-10-20T02:46:29.701Z,12.40
2022-10-20T02:47:33.640Z,11.73
2022-10-20T02:48:38.453Z,13.00
2022-10-20T02:49:42.123Z,13.95
2022-10-20T02:50:44.793Z,14.25
2022-10-20T02:51:48.822Z,13.48
2022-10-20T02:52:51.576Z,14.75
2022-10-20T02:53:55.944Z,14.05
2022-10-20T02:54:58.622Z,14.93
2022-10-20T02:56:02.617Z,14.82
2022-10-20T02:57:05.331Z,14.20
2022-10-20T02:58:09.100Z,14.18
2022-10-20T02:59:15.760Z,11.85
2022-10-20T03:00:19.548Z,12.85
2022-10-20T03:01:22.732Z,13.98
2022-10-20T03:02:26.720Z,14.00
2022-10-20T03:03:29.439Z,13.82
2022-10-20T03:04:33.129Z,14.80
2022-10-20T03:05:40.264Z,13.25
2022-10-20T03:06:44.020Z,13.27
2022-10-20T03:07:46.712Z,13.73
2022-10-20T03:08:50.385Z,11.23
2022-10-20T03:09:53.095Z,11.93
2022-10-20T03:10:56.785Z,12.05
2022-10-20T03:11:59.468Z,12.75
2022-10-20T03:13:03.204Z,12.77
2022-10-20T03:14:05.853Z,11.52
2022-10-20T03:15:11.903Z,12.40
2022-10-20T03:16:14.541Z,11.35
2022-10-20T03:17:18.281Z,12.23
2022-10-20T03:18:20.889Z,10.75
2022-10-20T03:19:24.672Z,11.48
2022-10-20T03:20:27.453Z,10.52
2022-10-20T03:21:31.172Z,10.93
2022-10-20T03:22:33.862Z,10.07
2022-10-20T03:23:37.556Z,12.00
2022-10-20T03:24:40.329Z,11.35
2022-10-20T03:25:44.094Z,11.30
2022-10-20T03:26:46.828Z,10.90
2022-10-20T03:27:50.577Z,11.43
2022-10-20T03:28:53.223Z,14.02
2022-10-20T03:29:56.950Z,12.85
2022-10-20T03:31:01.032Z,14.82
2022-10-20T03:32:04.772Z,13.10
2022-10-20T03:33:07.611Z,19.83
2022-10-20T03:34:12.941Z,19.52
2022-10-20T03:35:15.813Z,18.92
2022-10-20T03:36:19.555Z,19.45
2022-10-20T03:37:22.236Z,19.25
2022-10-20T03:38:26.331Z,18.73
2022-10-20T03:39:29.048Z,20.58
2022-10-20T03:40:32.969Z,19.48
2022-10-20T03:41:35.652Z,19.70
2022-10-20T03:42:39.496Z,19.55
2022-10-20T03:43:42.382Z,15.95
2022-10-20T03:44:46.341Z,16.60
2022-10-20T03:45:49.185Z,14.95
2022-10-20T03:46:54.291Z,12.88
2022-10-20T03:47:57.029Z,12.50
2022-10-20T03:49:00.820Z,12.05
2022-10-20T03:51:10.039Z,11.38
2022-10-20T03:52:12.736Z,12.10
2022-10-20T03:53:16.417Z,10.93
2022-10-20T03:54:19.091Z,10.10
2022-10-20T03:55:22.916Z,10.88
2022-10-20T03:56:25.661Z,10.38
2022-10-20T03:57:29.442Z,11.43
2022-10-20T03:58:32.131Z,10.73
2022-10-20T03:59:35.883Z,9.55
2022-10-20T04:00:38.679Z,10.18
2022-10-20T04:01:45.327Z,10.43
2022-10-20T04:02:49.590Z,9.98
2022-10-20T04:03:53.349Z,11.07
2022-10-20T04:04:55.969Z,10.00
2022-10-20T04:05:59.751Z,9.65
2022-10-20T04:07:02.584Z,10.70
2022-10-20T04:08:06.621Z,9.57
2022-10-20T04:09:09.456Z,11.00
2022-10-20T04:10:17.000Z,10.57
2022-10-20T04:11:19.570Z,9.90
2022-10-20T04:12:23.620Z,9.13
2022-10-20T04:13:26.348Z,10.40
2022-10-20T04:14:30.153Z,8.82
2022-10-20T04:15:32.826Z,9.25
2022-10-20T04:16:36.542Z,9.30
2022-10-20T04:18:45.209Z,11.27
2022-10-20T04:19:48.001Z,11.43
2022-10-20T04:20:51.849Z,11.55
2022-10-20T04:21:54.634Z,10.68
2022-10-20T04:22:58.344Z,9.77
2022-10-20T04:24:01.012Z,9.90
2022-10-20T04:25:05.127Z,9.75
2022-10-20T04:26:11.319Z,8.38
2022-10-20T04:27:15.036Z,10.82
2022-10-20T04:28:19.111Z,10.60
2022-10-20T04:29:22.860Z,10.30
2022-10-20T04:30:25.550Z,9.18
2022-10-20T04:31:29.281Z,8.90
2022-10-20T04:32:32.009Z,7.82
2022-10-20T04:33:36.002Z,9.15
2022-10-20T04:34:40.230Z,11.57
2022-10-20T04:35:44.209Z,10.48
2022-10-20T04:36:46.980Z,17.83
2022-10-20T04:37:50.633Z,37.60
2022-10-20T04:38:53.339Z,36.13
2022-10-20T04:39:57.940Z,13.13
2022-10-20T04:41:04.088Z,11.98
2022-10-20T04:42:08.119Z,13.90
2022-10-20T04:43:10.929Z,12.48
2022-10-20T04:44:14.630Z,13.90
2022-10-20T04:45:17.490Z,11.27
2022-10-20T04:46:21.669Z,12.65
2022-10-20T04:47:24.469Z,12.73
2022-10-20T04:48:28.348Z,10.93
2022-10-20T04:49:32.130Z,12.18
2022-10-20T04:50:36.270Z,11.38
2022-10-20T04:51:45.953Z,11.00
2022-10-20T04:52:48.654Z,10.35
2022-10-20T04:53:52.564Z,11.88
2022-10-20T04:54:55.343Z,14.00
2022-10-20T04:55:59.342Z,22.77
2022-10-20T04:57:02.121Z,11.05
2022-10-20T04:58:05.871Z,9.63
2022-10-20T04:59:12.645Z,11.82
2022-10-20T05:00:17.709Z,32.15
2022-10-20T05:01:22.217Z,29.27
2022-10-20T05:02:26.128Z,36.47
2022-10-20T05:03:28.910Z,18.42
2022-10-20T05:04:32.649Z,32.88
2022-10-20T05:05:36.741Z,18.92
2022-10-20T05:06:40.638Z,19.27
2022-10-20T05:07:43.444Z,18.70
2022-10-20T05:08:48.941Z,22.73
2022-10-20T05:09:51.619Z,23.88
2022-10-20T05:10:55.491Z,21.10
2022-10-20T05:11:58.300Z,20.55
2022-10-20T05:13:02.098Z,15.75
2022-10-20T05:14:05.007Z,19.15
2022-10-20T05:15:09.670Z,19.75
2022-10-20T05:16:14.065Z,22.17
2022-10-20T05:17:16.745Z,21.58
2022-10-20T05:18:20.430Z,20.88
2022-10-20T05:19:23.309Z,15.77
2022-10-20T05:20:27.132Z,14.98
2022-10-20T05:21:32.424Z,12.65
2022-10-20T05:22:36.429Z,11.80
2022-10-20T05:23:40.330Z,17.40
2022-10-20T05:24:44.078Z,14.85
2022-10-20T05:25:46.866Z,15.98
2022-10-20T05:26:51.221Z,14.23
2022-10-20T05:27:53.852Z,16.17
2022-10-20T05:28:57.551Z,14.27
2022-10-20T05:30:02.520Z,15.25
2022-10-20T05:31:09.931Z,16.40
2022-10-20T05:32:14.011Z,16.00
2022-10-20T05:33:16.618Z,15.57
2022-10-20T05:34:20.940Z,16.95
2022-10-20T05:35:23.750Z,17.38
2022-10-20T05:36:28.459Z,15.85
2022-10-20T05:37:32.499Z,14.50
2022-10-20T05:38:37.019Z,13.93
2022-10-20T05:39:40.753Z,15.57
2022-10-20T05:40:43.431Z,14.85
2022-10-20T05:41:47.111Z,16.38
2022-10-20T05:42:50.283Z,14.63
2022-10-20T05:43:57.389Z,14.52
2022-10-20T05:45:00.272Z,14.15
2022-10-20T05:46:04.200Z,13.25
2022-10-20T05:47:08.058Z,13.65
2022-10-20T05:48:10.710Z,13.25
2022-10-20T05:49:16.873Z,11.93
2022-10-20T05:50:19.630Z,11.63
2022-10-20T05:51:25.564Z,12.25
2022-10-20T05:52:29.339Z,11.77
2022-10-20T05:53:33.529Z,12.27
2022-10-20T05:54:37.301Z,12.30
2022-10-20T05:55:39.932Z,13.30
2022-10-20T05:56:43.701Z,11.90
2022-10-20T05:57:46.480Z,11.63
2022-10-20T05:58:50.690Z,12.35
2022-10-20T05:59:53.361Z,12.07
2022-10-20T06:01:06.622Z,11.35
2022-10-20T06:02:11.122Z,11.95
2022-10-20T06:03:16.153Z,12.55
2022-10-20T06:04:24.738Z,13.18
2022-10-20T06:05:27.727Z,15.02
2022-10-20T06:06:32.981Z,14.40
2022-10-20T06:07:35.963Z,15.80
2022-10-20T06:08:41.184Z,14.90
2022-10-20T06:09:45.078Z,14.05
2022-10-20T06:10:47.787Z,14.43
2022-10-20T06:11:52.579Z,18.27
2022-10-20T06:12:55.442Z,16.52
2022-10-20T06:13:59.147Z,16.90
2022-10-20T06:15:02.923Z,17.85
2022-10-20T06:16:06.829Z,16.45
2022-10-20T06:17:11.079Z,17.95
2022-10-20T06:18:13.913Z,18.58
2022-10-20T06:19:17.640Z,18.33
2022-10-20T06:20:20.379Z,18.10
2022-10-20T06:21:26.562Z,18.63
2022-10-20T06:22:29.183Z,18.40
2022-10-20T06:23:32.922Z,18.63
2022-10-20T06:24:38.265Z,18.48
2022-10-20T06:25:41.008Z,17.88
2022-10-20T06:26:46.082Z,18.05
2022-10-20T06:27:49.799Z,17.48
2022-10-20T06:28:59.777Z,16.20
2022-10-20T06:30:07.604Z,16.02
2022-10-20T06:31:14.879Z,15.95
2022-10-20T06:32:19.073Z,13.73
2022-10-20T06:33:21.751Z,13.05
2022-10-20T06:34:26.699Z,14.00
2022-10-20T06:35:31.805Z,12.75
2022-10-20T06:36:36.977Z,11.90
2022-10-20T06:37:39.723Z,11.27
2022-10-20T06:38:43.732Z,11.73
2022-10-20T06:39:49.161Z,11.20
2022-10-20T06:40:51.847Z,10.48
2022-10-20T06:41:56.109Z,11.98
2022-10-20T06:42:58.961Z,11.15
2022-10-20T06:44:02.798Z,11.27
2022-10-20T06:45:06.460Z,11.18
2022-10-20T06:46:13.623Z,10.35
2022-10-20T06:47:17.410Z,11.45
2022-10-20T06:48:20.553Z,10.45
2022-10-20T06:49:24.801Z,10.68
2022-10-20T06:50:27.930Z,10.18
2022-10-20T06:51:31.941Z,9.25
2022-10-20T06:52:35.966Z,10.32
2022-10-20T06:53:42.690Z,8.93
2022-10-20T06:54:51.058Z,9.73
2022-10-20T06:55:57.852Z,9.45
2022-10-20T06:57:01.613Z,10.13
2022-10-20T06:58:04.411Z,8.95
2022-10-20T06:59:08.209Z,9.65
2022-10-20T07:00:11.692Z,7.85
2022-10-20T07:01:16.842Z,9.27
2022-10-20T07:02:22.031Z,9.13
2022-10-20T07:03:24.774Z,9.38
2022-10-20T07:04:28.516Z,8.32
2022-10-20T07:05:31.207Z,8.80
2022-10-20T07:06:37.010Z,9.40
2022-10-20T07:07:41.763Z,8.93
2022-10-20T07:08:44.615Z,9.05
2022-10-20T07:09:48.382Z,8.43
2022-10-20T07:11:00.652Z,8.38
2022-10-20T07:12:04.433Z,8.68
2022-10-20T07:13:07.355Z,8.90
2022-10-20T07:14:11.930Z,9.82
2022-10-20T07:15:15.011Z,8.18
2022-10-20T07:16:22.247Z,8.13
2022-10-20T07:17:26.126Z,8.63
2022-10-20T07:18:29.731Z,8.25
2022-10-20T07:19:34.319Z,7.75
2022-10-20T07:20:37.132Z,9.00
2022-10-20T07:21:45.341Z,8.63
2022-10-20T07:22:48.793Z,8.75
2022-10-20T07:23:52.722Z,9.10
2022-10-20T07:24:55.432Z,8.73
2022-10-20T07:26:04.319Z,9.30
2022-10-20T07:27:08.110Z,9.38
2022-10-20T07:28:10.843Z,8.55
2022-10-20T07:29:15.933Z,8.65
2022-10-20T07:30:18.665Z,8.75
2022-10-20T07:31:24.423Z,7.50
2022-10-20T07:32:28.236Z,9.10
2022-10-20T07:33:31.058Z,7.03
2022-10-20T07:34:34.742Z,7.45
2022-10-20T07:35:37.422Z,7.00
2022-10-20T07:36:43.403Z,7.68
2022-10-20T07:37:46.140Z,7.05
2022-10-20T07:38:50.059Z,7.93
2022-10-20T07:39:53.941Z,8.18
2022-10-20T07:41:03.390Z,8.38
2022-10-20T07:42:07.469Z,7.38
2022-10-20T07:43:10.413Z,7.88
2022-10-20T07:44:14.315Z,7.35
2022-10-20T07:45:18.275Z,8.60
2022-10-20T07:46:21.318Z,7.75
2022-10-20T07:47:25.240Z,7.28
2022-10-20T07:48:28.319Z,36.80
2022-10-20T07:49:43.841Z,8.88
2022-10-20T07:50:48.269Z,14.98
2022-10-20T07:51:52.025Z,6.40
2022-10-20T07:52:55.796Z,6.13
2022-10-20T07:54:00.812Z,5.32
2022-10-20T07:55:18.036Z,6.25
2022-10-20T07:56:31.990Z,6.03
2022-10-20T07:57:34.739Z,5.95
2022-10-20T07:58:39.003Z,30.30
2022-10-20T07:59:42.911Z,6.07
2022-10-20T08:00:46.642Z,8.32
2022-10-20T08:01:49.464Z,5.57
2022-10-20T08:02:53.301Z,5.45
2022-10-20T08:03:56.043Z,5.40
2022-10-20T08:04:59.907Z,5.68
2022-10-20T08:06:03.182Z,5.97
2022-10-20T08:07:06.986Z,7.43
2022-10-20T08:08:09.641Z,8.35
2022-10-20T08:09:13.391Z,5.00
2022-10-20T08:10:17.090Z,6.80
2022-10-20T08:11:20.556Z,6.25
2022-10-20T08:12:25.772Z,5.78
2022-10-20T08:13:30.441Z,5.57
2022-10-20T08:14:36.477Z,6.38
2022-10-20T08:15:51.649Z,7.43
2022-10-20T08:16:59.278Z,6.60
2022-10-20T08:18:03.469Z,6.72
2022-10-20T08:19:18.484Z,6.60
2022-10-20T08:20:34.580Z,5.57
2022-10-20T08:21:38.328Z,6.75
2022-10-20T08:22:41.010Z,6.25
2022-10-20T08:23:45.939Z,5.72
2022-10-20T08:24:48.692Z,6.60
2022-10-20T08:25:57.277Z,6.57
2022-10-20T08:27:02.118Z,5.50
2022-10-20T08:28:07.459Z,6.22
2022-10-20T08:29:10.229Z,5.53
2022-10-20T08:30:26.674Z,5.40
2022-10-20T08:31:30.503Z,5.90
2022-10-20T08:32:33.248Z,5.13
2022-10-20T08:33:37.188Z,6.03
2022-10-20T08:34:39.872Z,6.25
2022-10-20T08:35:43.676Z,5.30
2022-10-20T08:36:47.450Z,4.93
2022-10-20T08:37:51.279Z,5.00
2022-10-20T08:38:56.633Z,4.55
2022-10-20T08:40:00.352Z,4.10
2022-10-20T08:41:03.619Z,4.63
2022-10-20T08:42:08.854Z,4.43
2022-10-20T08:43:18.867Z,4.45
2022-10-20T08:44:26.712Z,3.53
2022-10-20T08:45:29.622Z,4.00
2022-10-20T08:46:35.990Z,4.13
2022-10-20T08:47:40.902Z,3.97
2022-10-20T08:48:45.160Z,3.90
2022-10-20T08:49:48.948Z,4.32
2022-10-20T08:50:54.212Z,3.42
2022-10-20T08:51:56.900Z,3.72
2022-10-20T08:53:02.093Z,3.65
2022-10-20T08:54:06.380Z,3.78
2022-10-20T08:55:18.209Z,4.10
2022-10-20T08:56:25.350Z,3.60
2022-10-20T08:57:31.518Z,3.33
2022-10-20T08:58:43.722Z,3.13
2022-10-20T08:59:47.464Z,2.70
2022-10-20T09:00:57.522Z,3.30
2022-10-20T09:02:01.415Z,2.40
2022-10-20T09:03:15.161Z,3.42
2022-10-20T09:04:21.900Z,2.92
2022-10-20T09:05:28.558Z,2.85
2022-10-20T09:06:31.319Z,3.00
2022-10-20T09:07:37.022Z,2.60
2022-10-20T09:08:41.848Z,2.78
2022-10-20T09:09:44.664Z,2.90
2022-10-20T09:10:50.236Z,2.15
2022-10-20T09:11:56.743Z,2.13
2022-10-20T09:13:01.071Z,2.33
2022-10-20T09:14:06.248Z,2.97
2022-10-20T09:15:11.363Z,2.72
2022-10-20T09:16:28.553Z,2.40
2022-10-20T09:17:45.563Z,2.55
2022-10-20T09:18:52.430Z,2.92
2022-10-20T09:19:56.742Z,1.90
2022-10-20T09:21:02.511Z,2.50
2022-10-20T09:22:06.570Z,2.00
2022-10-20T09:23:35.472Z,2.22
2022-10-20T09:24:38.269Z,2.00
2022-10-20T09:25:41.506Z,1.92
2022-10-20T09:26:58.102Z,2.00
2022-10-20T09:28:01.672Z,2.20
2022-10-20T09:29:13.462Z,1.67
2022-10-20T09:30:20.236Z,2.00
2022-10-20T09:31:25.587Z,1.80
2022-10-20T09:32:52.403Z,2.38
2022-10-20T09:33:56.221Z,2.05
2022-10-20T09:35:13.033Z,1.73
2022-10-20T09:36:19.323Z,2.03
2022-10-20T09:37:23.211Z,1.83
2022-10-20T09:38:29.777Z,2.00
2022-10-20T09:39:39.517Z,1.88
2022-10-20T09:40:45.427Z,1.70
2022-10-20T09:41:48.563Z,2.38
2022-10-20T09:42:54.712Z,2.17
2022-10-20T09:44:01.552Z,1.70
2022-10-20T09:45:13.355Z,1.85
2022-10-20T09:46:20.832Z,1.42
2022-10-20T09:47:23.922Z,2.30
2022-10-20T09:48:29.854Z,2.17
2022-10-20T09:49:36.409Z,2.03
2022-10-20T09:50:41.141Z,1.50
2022-10-20T09:51:48.985Z,1.60
2022-10-20T09:52:51.902Z,1.83
2022-10-20T09:53:59.170Z,1.60
2022-10-20T09:55:04.083Z,1.65
2022-10-20T09:56:08.586Z,1.48
2022-10-20T09:57:18.838Z,1.80
2022-10-20T09:58:26.081Z,1.80
2022-10-20T09:59:34.735Z,1.70
2022-10-20T10:00:45.148Z,1.73
2022-10-20T10:01:56.684Z,1.40
2022-10-20T10:03:11.467Z,1.20
2022-10-20T10:04:32.292Z,1.48
2022-10-20T10:05:35.092Z,1.20
2022-10-20T10:06:46.451Z,1.55
2022-10-20T10:08:00.274Z,1.40
2022-10-20T10:09:04.253Z,1.60
2022-10-20T10:10:11.490Z,1.15
2022-10-20T10:11:18.509Z,1.50
2022-10-20T10:12:21.291Z,1.30
2022-10-20T10:13:27.348Z,1.42
2022-10-20T10:14:33.421Z,1.20
2022-10-20T10:15:39.187Z,1.10
2022-10-20T10:16:43.763Z,1.25
2022-10-20T10:17:46.462Z,1.10
2022-10-20T10:18:57.550Z,1.33
2022-10-20T10:20:06.299Z,1.00
2022-10-20T10:21:11.268Z,1.33
2022-10-20T10:22:15.201Z,1.45
2022-10-20T10:23:21.321Z,0.98
2022-10-20T10:24:42.331Z,1.40
2022-10-20T10:25:45.034Z,1.20
2022-10-20T10:26:54.767Z,1.30
2022-10-20T10:27:59.722Z,1.75
2022-10-20T10:29:04.025Z,1.48
2022-10-20T10:30:28.793Z,1.38
2022-10-20T10:31:34.947Z,1.38
2022-10-20T10:32:45.124Z,1.20
2022-10-20T10:33:49.037Z,1.30
2022-10-20T10:35:14.371Z,1.20
2022-10-20T10:36:26.381Z,1.50
2022-10-20T10:37:33.884Z,1.65
2022-10-20T10:38:38.160Z,1.08
2022-10-20T10:39:42.129Z,2.00
2022-10-20T10:40:53.741Z,2.55
2022-10-20T10:42:09.270Z,1.05
2022-10-20T10:43:30.782Z,1.35
2022-10-20T10:44:43.493Z,1.27
2022-10-20T10:45:51.860Z,1.60
2022-10-20T10:47:04.754Z,1.10
2022-10-20T10:48:21.102Z,1.40
2022-10-20T10:49:51.534Z,1.30
2022-10-20T10:50:58.162Z,1.38
2022-10-20T10:52:10.702Z,1.20
2022-10-20T10:53:25.640Z,1.10
2022-10-20T10:54:42.418Z,1.42
2022-10-20T10:55:50.776Z,1.20
2022-10-20T10:56:58.712Z,1.20
2022-10-20T10:58:07.958Z,0.90
2022-10-20T10:59:13.453Z,1.30
2022-10-20T11:00:21.009Z,0.95
2022-10-20T11:01:36.262Z,0.98
2022-10-20T11:03:17.010Z,1.33
2022-10-20T11:04:38.105Z,1.00
2022-10-20T11:05:53.287Z,1.00
2022-10-20T11:07:00.064Z,1.30
2022-10-20T11:08:11.232Z,1.60
2022-10-20T11:09:24.652Z,1.42
2022-10-20T11:10:33.447Z,1.40
2022-10-20T11:11:45.469Z,2.05
2022-10-20T11:13:10.490Z,1.48
2022-10-20T11:14:20.336Z,1.40
2022-10-20T11:15:32.655Z,1.63
2022-10-20T11:16:40.807Z,1.17
2022-10-20T11:17:52.872Z,1.40
2022-10-20T11:19:21.100Z,1.15
2022-10-20T11:20:32.020Z,1.08
2022-10-20T11:21:42.201Z,1.40
2022-10-20T11:22:55.530Z,1.38
2022-10-20T11:24:14.534Z,0.93
2022-10-20T11:25:29.401Z,1.60
2022-10-20T11:26:35.297Z,1.38
2022-10-20T11:27:39.850Z,1.13
2022-10-20T11:28:45.090Z,1.52
2022-10-20T11:29:51.600Z,1.15
2022-10-20T11:30:54.714Z,1.60
2022-10-20T11:32:05.247Z,1.05
2022-10-20T11:33:15.491Z,1.40
2022-10-20T11:34:24.864Z,1.20
2022-10-20T11:35:36.102Z,1.23
2022-10-20T11:36:43.327Z,2.05
2022-10-20T11:37:51.011Z,1.35
2022-10-20T11:38:55.743Z,1.17
2022-10-20T11:40:07.791Z,0.98
2022-10-20T11:41:17.273Z,1.20
2022-10-20T11:42:26.838Z,1.63
2022-10-20T11:43:34.811Z,1.10
2022-10-20T11:44:40.699Z,0.85
2022-10-20T11:45:49.239Z,0.90
2022-10-20T11:46:55.712Z,1.38
2022-10-20T11:48:05.331Z,1.10
2022-10-20T11:49:13.549Z,0.95
2022-10-20T11:50:18.476Z,1.20
2022-10-20T11:51:40.562Z,1.20
2022-10-20T11:53:00.812Z,1.30
2022-10-20T11:54:31.969Z,1.40
2022-10-20T11:55:54.192Z,1.25
2022-10-20T11:57:15.301Z,1.13
2022-10-20T11:58:36.003Z,1.20
2022-10-20T12:00:06.480Z,1.30
2022-10-20T12:01:29.136Z,1.50
2022-10-20T12:02:56.667Z,1.60
2022-10-20T12:04:23.002Z,1.70
2022-10-20T12:05:45.965Z,1.85
2022-10-20T12:07:06.918Z,1.58
2022-10-20T12:08:29.905Z,1.10
2022-10-20T12:09:49.573Z,1.45
2022-10-20T12:10:56.706Z,1.52
2022-10-20T12:12:03.638Z,1.30
2022-10-20T12:13:18.437Z,1.40
2022-10-20T12:14:27.551Z,1.35
2022-10-20T12:15:31.367Z,1.67
2022-10-20T12:17:20.601Z,1.15
2022-10-20T12:18:28.151Z,1.23
2022-10-20T12:19:32.402Z,1.15
2022-10-20T12:20:55.425Z,1.05
2022-10-20T12:22:01.328Z,1.42
2022-10-20T12:23:04.181Z,1.23
2022-10-20T12:24:31.260Z,1.17
2022-10-20T12:25:42.606Z,1.20
2022-10-20T12:27:17.703Z,1.42
2022-10-20T12:28:48.083Z,1.45
2022-10-20T12:30:01.624Z,1.40
2022-10-20T12:31:06.514Z,1.30
2022-10-20T12:32:46.575Z,1.60
2022-10-20T12:34:05.170Z,2.58
2022-10-20T12:35:30.145Z,1.58
2022-10-20T12:36:36.652Z,2.00
2022-10-20T12:37:42.217Z,1.80
2022-10-20T12:38:52.306Z,1.70
2022-10-20T12:39:56.761Z,2.08
2022-10-20T12:41:02.061Z,2.13
2022-10-20T12:42:08.489Z,2.55
2022-10-20T12:43:23.939Z,3.20
2022-10-20T12:44:29.504Z,2.30
2022-10-20T12:45:37.793Z,2.20
2022-10-20T12:46:44.708Z,1.60
2022-10-20T12:47:49.613Z,1.48
2022-10-20T12:49:00.311Z,1.58
2022-10-20T12:50:08.061Z,1.83
2022-10-20T12:51:19.932Z,1.88
2022-10-20T12:52:30.100Z,1.55
2022-10-20T12:53:33.330Z,1.90
2022-10-20T12:54:40.120Z,2.25
2022-10-20T12:55:45.600Z,1.70
2022-10-20T12:56:50.565Z,1.63
2022-10-20T12:58:12.090Z,1.90
2022-10-20T12:59:39.561Z,1.88
2022-10-20T13:01:02.817Z,2.00
2022-10-20T13:02:50.389Z,1.70
2022-10-20T13:03:53.263Z,1.85
2022-10-20T13:04:59.080Z,1.70
2022-10-20T13:06:03.464Z,2.42
2022-10-20T13:07:09.347Z,2.00
2022-10-20T13:08:30.376Z,1.95
2022-10-20T13:10:00.309Z,1.73
2022-10-20T13:11:46.300Z,2.08
2022-10-20T13:12:50.140Z,1.70
2022-10-20T13:14:01.466Z,1.70
2022-10-20T13:15:13.140Z,1.80
2022-10-20T13:16:20.497Z,1.70
2022-10-20T13:17:27.891Z,1.70
2022-10-20T13:18:34.051Z,1.80
2022-10-20T13:19:44.326Z,1.77
2022-10-20T13:20:51.570Z,1.92
2022-10-20T13:21:55.281Z,1.98
2022-10-20T13:24:15.551Z,1.98
2022-10-20T13:25:35.053Z,2.28
2022-10-20T13:26:39.691Z,2.20
2022-10-20T13:27:43.322Z,2.17
2022-10-20T13:28:48.443Z,2.30
2022-10-20T13:29:52.680Z,2.40
2022-10-20T13:31:02.910Z,2.50
2022-10-20T13:32:16.235Z,2.50
2022-10-20T13:33:34.382Z,2.85
2022-10-20T13:34:52.269Z,2.42
2022-10-20T13:36:00.081Z,2.50
2022-10-20T13:37:14.005Z,2.55
2022-10-20T13:38:21.511Z,2.60
2022-10-20T13:39:32.178Z,2.40
2022-10-20T13:40:43.540Z,2.60
2022-10-20T13:41:50.396Z,2.40
2022-10-20T13:43:02.959Z,1.90
2022-10-20T13:44:12.478Z,2.20
2022-10-20T13:45:24.828Z,2.45
2022-10-20T13:46:38.891Z,2.50
2022-10-20T13:47:50.949Z,2.40
2022-10-20T13:49:13.043Z,2.33
2022-10-20T13:51:27.281Z,2.40
2022-10-20T13:52:32.381Z,1.90
2022-10-20T13:53:39.837Z,2.00
2022-10-20T13:54:46.674Z,1.92
2022-10-20T13:55:57.331Z,1.95
2022-10-20T13:57:00.550Z,2.25
2022-10-20T13:58:09.310Z,1.92
2022-10-20T14:00:34.076Z,2.17
2022-10-20T14:01:37.366Z,1.85
2022-10-20T14:02:41.515Z,1.90
2022-10-20T14:03:46.650Z,2.20
2022-10-20T14:04:53.752Z,1.90
2022-10-20T14:05:59.462Z,1.95
2022-10-20T14:07:08.658Z,2.20
2022-10-20T14:08:16.420Z,1.90
2022-10-20T14:09:22.911Z,1.70
2022-10-20T14:10:41.900Z,2.08
2022-10-20T14:11:50.628Z,1.92
2022-10-20T14:12:56.704Z,2.08
2022-10-20T14:14:01.312Z,1.80
2022-10-20T14:15:05.301Z,2.03
2022-10-20T14:16:19.387Z,2.03
2022-10-20T14:17:23.993Z,1.98
2022-10-20T14:18:29.601Z,1.83
2022-10-20T14:19:33.855Z,1.77
2022-10-20T14:20:37.993Z,1.75
2022-10-20T14:21:42.459Z,1.88
2022-10-20T14:22:45.674Z,1.98
2022-10-20T14:23:50.969Z,2.35
2022-10-20T14:24:55.514Z,1.80
2022-10-20T14:26:01.109Z,2.58
2022-10-20T14:27:05.189Z,1.75
2022-10-20T14:28:12.932Z,1.80
2022-10-20T14:29:17.999Z,1.92
2022-10-20T14:30:22.392Z,1.80
2022-10-20T14:31:25.596Z,1.63
2022-10-20T14:32:31.553Z,2.00
2022-10-20T14:33:45.132Z,1.70
2022-10-20T14:34:56.271Z,1.40
2022-10-20T14:36:02.843Z,1.52
2022-10-20T14:37:07.969Z,1.75
2022-10-20T14:38:18.716Z,1.70
2022-10-20T14:39:26.318Z,1.80
2022-10-20T14:40:32.425Z,1.75
2022-10-20T14:41:38.209Z,1.70
2022-10-20T14:42:44.840Z,1.75
2022-10-20T14:43:49.910Z,1.70
2022-10-20T14:44:53.529Z,1.70